Time;durP1;ratioP1;P1;durP2;ratioP2;P2;SDS_P1;SDS_P2;PMS_P1;PMS_P2;Temp;Humidity;BMP_temperature;BMP_pressure;BME280_temperature;BME280_humidity;BME280_pressure;Samples;Min_cycle;Max_cycle;Signal;HPM_P1;HPM_P2
2023/04/24 00:01:13;;;;;;;8.88;7.80;;;;;;;11.08;77.14;99701.47;7399619;19;20018;-68
2023/04/24 00:03:42;;;;;;;7.90;7.10;;;;;;;11.07;77.35;99708.53;7397841;19;20019;-68
2023/04/24 00:06:10;;;;;;;7.60;6.03;;;;;;;11.06;77.46;99698.94;7399431;19;20014;-68
2023/04/24 00:08:41;;;;;;;6.88;6.18;;;;;;;11.05;77.69;99689.34;7399523;19;20022;-68
2023/04/24 00:11:11;;;;;;;7.78;6.15;;;;;;;11.04;77.99;99689.41;7397458;19;20018;-68
2023/04/24 00:13:40;;;;;;;6.40;5.55;;;;;;;11.02;78.09;99673.72;7397860;19;20026;-68
2023/04/24 00:16:09;;;;;;;8.02;6.18;;;;;;;11.00;78.35;99682.59;7398207;19;20018;-68
2023/04/24 00:18:37;;;;;;;6.55;5.68;;;;;;;11.00;78.56;99688.69;7398710;19;20027;-68
2023/04/24 00:21:06;;;;;;;6.82;6.22;;;;;;;11.01;78.71;99692.16;7398515;19;20037;-68
2023/04/24 00:23:35;;;;;;;6.43;5.78;;;;;;;11.02;78.96;99693.84;7397772;19;20046;-68
2023/04/24 00:26:06;;;;;;;7.85;5.78;;;;;;;11.05;79.39;99688.50;7398768;19;20023;-68
2023/04/24 00:28:34;;;;;;;6.85;5.88;;;;;;;11.07;79.55;99686.69;7399208;19;20218;-68
2023/04/24 00:31:03;;;;;;;6.30;5.70;;;;;;;11.11;79.74;99687.38;7398668;19;20035;-68
2023/04/24 00:33:31;;;;;;;8.15;6.10;;;;;;;11.14;79.79;99685.47;7397547;19;20098;-68
2023/04/24 00:36:00;;;;;;;8.30;6.47;;;;;;;11.16;80.07;99686.28;7396670;19;20018;-68
2023/04/24 00:38:29;;;;;;;7.00;6.05;;;;;;;11.14;80.31;99677.63;7399789;19;20014;-68
2023/04/24 00:40:57;;;;;;;6.68;5.97;;;;;;;11.20;80.48;99684.41;7396942;19;20025;-69
2023/04/24 00:43:29;;;;;;;6.40;5.72;;;;;;;11.23;80.64;99687.75;7396604;19;20388;-68
2023/04/24 00:45:57;;;;;;;6.55;5.95;;;;;;;11.24;80.58;99681.56;7397603;19;20031;-68
2023/04/24 00:48:27;;;;;;;7.03;6.40;;;;;;;11.27;80.76;99680.56;7398068;19;20023;-68
2023/04/24 00:50:57;;;;;;;7.63;6.93;;;;;;;11.30;80.90;99671.72;7397874;19;20085;-68
2023/04/24 00:53:25;;;;;;;6.75;6.05;;;;;;;11.31;81.20;99665.56;7394823;19;20094;-68
2023/04/24 00:55:54;;;;;;;6.72;6.13;;;;;;;11.35;81.43;99672.41;7397482;19;20027;-68
2023/04/24 00:58:22;;;;;;;6.80;6.13;;;;;;;11.39;81.35;99668.72;7395883;19;20498;-68
2023/04/24 01:00:55;;;;;;;7.45;6.05;;;;;;;11.43;81.55;99665.03;7397593;19;20014;-68
2023/04/24 01:03:27;;;;;;;7.28;6.47;;;;;;;11.48;81.73;99657.81;7396439;19;20477;-68
2023/04/24 01:05:57;;;;;;;6.88;6.18;;;;;;;11.55;81.81;99663.66;7397176;19;20465;-67
2023/04/24 01:08:27;;;;;;;8.27;6.43;;;;;;;11.58;81.88;99661.75;7395573;19;20478;-67
2023/04/24 01:10:55;;;;;;;6.85;6.13;;;;;;;11.66;81.81;99655.31;7396973;19;20018;-68
2023/04/24 01:13:24;;;;;;;7.07;6.00;;;;;;;11.71;81.75;99648.09;7396734;19;20484;-66
2023/04/24 01:15:55;;;;;;;6.60;5.90;;;;;;;11.77;81.57;99649.59;7396839;19;20477;-66
2023/04/24 01:18:24;;;;;;;6.53;5.88;;;;;;;11.81;81.58;99646.75;7395659;19;20014;-67
2023/04/24 01:20:55;;;;;;;6.43;5.55;;;;;;;11.84;81.41;99645.75;7396976;19;20014;-66
2023/04/24 01:23:26;;;;;;;8.38;6.03;;;;;;;11.86;81.35;99650.03;7395728;19;20031;-67
2023/04/24 01:25:55;;;;;;;6.80;6.03;;;;;;;11.95;81.40;99653.19;7395322;19;20039;-67
2023/04/24 01:28:24;;;;;;;6.13;4.93;;;;;;;11.97;81.52;99652.22;7396346;19;20019;-67
2023/04/24 01:30:53;;;;;;;5.97;5.38;;;;;;;12.00;81.20;99646.81;7396874;19;20022;-67
2023/04/24 01:33:23;;;;;;;7.10;5.97;;;;;;;12.03;81.09;99651.06;7395483;19;20379;-66
2023/04/24 01:35:52;;;;;;;6.50;5.90;;;;;;;12.02;81.18;99639.72;7394769;19;20018;-66
2023/04/24 01:38:20;;;;;;;6.45;5.85;;;;;;;12.09;81.00;99647.31;7395899;19;20007;-68
2023/04/24 01:40:52;;;;;;;6.15;5.55;;;;;;;12.10;80.89;99652.50;7395892;19;20014;-67
2023/04/24 01:43:21;;;;;;;18.92;12.90;;;;;;;12.12;80.78;99645.41;7395463;19;20485;-67
2023/04/24 01:45:49;;;;;;;17.48;10.80;;;;;;;12.14;80.81;99640.91;7395184;19;20018;-68
2023/04/24 01:48:18;;;;;;;14.77;10.77;;;;;;;12.15;80.71;99634.75;7394890;19;20022;-68
2023/04/24 01:50:46;;;;;;;13.43;9.35;;;;;;;12.18;80.73;99636.38;7395568;19;20482;-68
2023/04/24 01:53:15;;;;;;;8.23;6.47;;;;;;;12.19;80.76;99633.66;7394832;19;20035;-68
2023/04/24 01:55:43;;;;;;;6.57;5.40;;;;;;;12.20;80.71;99642.44;7395477;19;20015;-68
2023/04/24 01:58:15;;;;;;;6.50;5.07;;;;;;;12.20;80.71;99643.28;7393969;19;20477;-68
2023/04/24 02:00:43;;;;;;;6.13;5.38;;;;;;;12.21;80.71;99644.13;7396174;19;20100;-68
2023/04/24 02:03:12;;;;;;;6.43;5.28;;;;;;;12.20;80.80;99640.63;7395130;19;20090;-68
2023/04/24 02:05:40;;;;;;;5.85;5.25;;;;;;;12.20;80.71;99645.91;7396283;19;20047;-68
2023/04/24 02:08:09;;;;;;;7.30;5.47;;;;;;;12.21;80.66;99650.25;7395399;19;20031;-68
2023/04/24 02:10:37;;;;;;;7.07;5.22;;;;;;;12.20;80.95;99648.53;7395318;19;20033;-68
2023/04/24 02:13:06;;;;;;;5.75;5.15;;;;;;;12.21;80.62;99644.13;7394436;19;20022;-68
2023/04/24 02:15:37;;;;;;;7.68;5.20;;;;;;;12.21;81.02;99646.78;7395170;19;20026;-68
2023/04/24 02:18:06;;;;;;;8.57;5.63;;;;;;;12.21;80.78;99639.72;7393696;19;20423;-68
2023/04/24 02:20:36;;;;;;;6.00;5.40;;;;;;;12.22;80.81;99640.59;7393278;19;20014;-68
2023/04/24 02:23:05;;;;;;;6.30;5.60;;;;;;;12.23;80.88;99639.66;7394214;19;20503;-68
2023/04/24 02:25:33;;;;;;;6.80;5.00;;;;;;;12.23;80.79;99639.66;7395117;19;20022;-67
2023/04/24 02:28:02;;;;;;;6.30;4.88;;;;;;;12.25;80.68;99637.81;7394965;19;20019;-68
2023/04/24 02:30:31;;;;;;;6.05;5.45;;;;;;;12.26;80.87;99636.03;7393053;19;20023;-68
2023/04/24 02:33:03;;;;;;;6.72;6.00;;;;;;;12.26;80.69;99630.75;7393766;19;20031;-68
2023/04/24 02:35:31;;;;;;;5.47;4.97;;;;;;;12.27;80.74;99629.84;7394380;19;20015;-68
2023/04/24 02:38:00;;;;;;;6.35;5.28;;;;;;;12.27;80.55;99630.72;7392919;19;20074;-68
2023/04/24 02:40:28;;;;;;;6.20;4.75;;;;;;;12.28;80.71;99634.19;7394521;19;20024;-68
2023/04/24 02:42:57;;;;;;;7.40;5.55;;;;;;;12.28;80.78;99640.28;7392538;19;20019;-67
2023/04/24 02:45:25;;;;;;;6.38;5.40;;;;;;;12.29;80.60;99641.16;7394520;19;20063;-67
2023/04/24 02:48:00;;;;;;;7.65;5.18;;;;;;;12.28;80.65;99636.81;7391731;19;20010;-67
2023/04/24 02:50:31;;;;;;;5.65;5.03;;;;;;;12.28;80.68;99639.44;7393977;19;20038;-68
2023/04/24 02:53:00;;;;;;;5.60;5.03;;;;;;;12.26;80.70;99636.03;7393837;19;20045;-68
2023/04/24 02:55:28;;;;;;;5.65;4.60;;;;;;;12.25;80.71;99629.06;7394137;19;20031;-68
2023/04/24 02:57:57;;;;;;;6.25;5.10;;;;;;;12.25;80.53;99631.72;7392772;19;20419;-68
2023/04/24 03:00:25;;;;;;;5.72;5.13;;;;;;;12.24;80.62;99638.72;7394035;19;20019;-68
2023/04/24 03:02:54;;;;;;;6.68;5.47;;;;;;;12.24;80.51;99636.09;7393099;19;20502;-68
2023/04/24 03:05:23;;;;;;;6.88;6.13;;;;;;;12.22;80.37;99625.66;7393918;19;20022;-68
2023/04/24 03:07:54;;;;;;;6.30;5.70;;;;;;;12.23;80.48;99626.50;7393389;19;20022;-68
2023/04/24 03:10:23;;;;;;;5.78;5.18;;;;;;;12.23;80.49;99629.13;7393359;19;20025;-68
2023/04/24 03:12:51;;;;;;;5.20;4.72;;;;;;;12.23;80.37;99639.66;7393349;19;20023;-68
2023/04/24 03:15:20;;;;;;;5.63;5.03;;;;;;;12.21;80.56;99639.72;7393521;19;20015;-68
2023/04/24 03:17:49;;;;;;;4.68;4.28;;;;;;;12.22;80.40;99640.59;7397811;19;20022;-68
2023/04/24 03:20:18;;;;;;;4.28;3.88;;;;;;;12.18;80.42;99634.63;7400614;19;20489;-68
2023/04/24 03:22:47;;;;;;;4.72;3.72;;;;;;;12.14;80.17;99632.19;7400077;19;20537;-68
2023/04/24 03:25:18;;;;;;;5.45;4.03;;;;;;;12.17;80.29;99648.69;7401171;19;20518;-68
2023/04/24 03:27:46;;;;;;;5.20;4.10;;;;;;;12.15;80.21;99645.25;7401118;19;20027;-68
2023/04/24 03:30:15;;;;;;;6.15;3.63;;;;;;;12.13;80.44;99641.88;7397594;19;20027;-68
2023/04/24 03:32:44;;;;;;;4.20;3.72;;;;;;;12.14;80.30;99642.72;7397851;19;20043;-68
2023/04/24 03:35:12;;;;;;;4.07;3.67;;;;;;;12.13;80.49;99635.75;7397793;19;20036;-68
2023/04/24 03:37:41;;;;;;;4.75;4.28;;;;;;;12.11;80.60;99640.22;7399316;19;20514;-67
2023/04/24 03:40:11;;;;;;;4.55;4.15;;;;;;;12.10;80.63;99642.00;7399751;19;20018;-68
2023/04/24 03:42:42;;;;;;;6.35;4.15;;;;;;;12.08;80.67;99645.63;7399560;19;20515;-69
2023/04/24 03:45:12;;;;;;;5.25;4.50;;;;;;;12.05;80.72;99641.34;7399880;19;20423;-69
2023/04/24 03:47:41;;;;;;;5.00;4.35;;;;;;;12.00;80.98;99641.56;7397296;19;20010;-69
2023/04/24 03:50:10;;;;;;;5.03;4.45;;;;;;;11.97;80.91;99638.22;7399625;19;20031;-68
2023/04/24 03:52:38;;;;;;;4.75;4.22;;;;;;;11.90;81.15;99638.47;7397897;19;20372;-69
2023/04/24 03:55:08;;;;;;;5.90;4.25;;;;;;;11.88;81.29;99639.47;7398954;19;20019;-68
2023/04/24 03:57:37;;;;;;;5.30;4.70;;;;;;;11.81;81.61;99643.28;7399410;19;20041;-68
2023/04/24 04:00:10;;;;;;;5.07;4.60;;;;;;;11.77;81.66;99649.59;7399376;19;20078;-68
2023/04/24 04:02:38;;;;;;;4.35;3.95;;;;;;;11.72;81.84;99647.16;7396167;19;20074;-67
2023/04/24 04:05:07;;;;;;;5.32;4.53;;;;;;;11.67;81.99;99638.63;7399171;19;20049;-67
2023/04/24 04:07:36;;;;;;;4.47;4.07;;;;;;;11.65;81.92;99661.47;7398718;19;20343;-69
2023/04/24 04:10:06;;;;;;;7.03;4.20;;;;;;;11.62;82.15;99654.59;7398889;19;20082;-68
2023/04/24 04:12:35;;;;;;;7.10;4.70;;;;;;;11.60;82.27;99658.22;7399187;19;20039;-67
2023/04/24 04:15:04;;;;;;;4.07;3.67;;;;;;;11.56;82.37;99662.72;7398624;19;20371;-67
2023/04/24 04:17:35;;;;;;;4.78;3.80;;;;;;;11.52;82.56;99659.38;7398415;19;20014;-67
2023/04/24 04:20:11;;;;;;;4.30;3.90;;;;;;;11.48;82.48;99659.59;7398610;19;20036;-67
2023/04/24 04:22:40;;;;;;;4.32;3.92;;;;;;;11.44;82.44;99650.13;7398293;19;20023;-67
2023/04/24 04:25:09;;;;;;;3.97;3.60;;;;;;;11.44;82.79;99656.25;7398157;19;20114;-67
2023/04/24 04:27:37;;;;;;;4.55;3.55;;;;;;;11.42;82.81;99655.44;7396545;19;20220;-68
2023/04/24 04:30:07;;;;;;;4.05;3.60;;;;;;;11.40;82.91;99652.06;7395700;19;20090;-68
2023/04/24 04:32:38;;;;;;;5.75;3.53;;;;;;;11.38;82.88;99654.72;7398196;19;20035;-68
2023/04/24 04:35:07;;;;;;;14.15;3.40;;;;;;;11.35;82.86;99654.88;7396293;19;20027;-68
2023/04/24 04:37:36;;;;;;;4.90;3.10;;;;;;;11.33;83.00;99655.84;7397640;19;20022;-67
2023/04/24 04:40:07;;;;;;;3.20;2.80;;;;;;;11.32;82.92;99654.13;7397955;19;20082;-67
2023/04/24 04:42:40;;;;;;;3.03;2.60;;;;;;;11.31;83.05;99660.31;7397956;19;20021;-68
2023/04/24 04:45:11;;;;;;;3.05;2.50;;;;;;;11.30;82.99;99663.84;7397998;19;20044;-68
2023/04/24 04:47:42;;;;;;;2.83;2.47;;;;;;;11.27;82.96;99656.94;7395868;19;20481;-68
2023/04/24 04:50:11;;;;;;;3.45;2.33;;;;;;;11.28;82.98;99663.06;7398032;19;20123;-68
2023/04/24 04:52:40;;;;;;;2.60;2.38;;;;;;;11.27;82.96;99653.47;7397329;19;20014;-68
2023/04/24 04:55:09;;;;;;;5.03;2.30;;;;;;;11.26;82.92;99665.75;7397021;19;20015;-67
2023/04/24 04:57:38;;;;;;;2.50;2.25;;;;;;;11.27;83.04;99671.84;7396542;19;20018;-67
2023/04/24 05:00:10;;;;;;;4.82;3.08;;;;;;;11.24;82.94;99668.44;7396254;19;20406;-69
2023/04/24 05:02:38;;;;;;;4.88;4.25;;;;;;;11.24;82.98;99680.72;7395962;19;20482;-68
2023/04/24 05:05:11;;;;;;;5.25;3.45;;;;;;;11.22;83.07;99679.91;7395549;19;20397;-70
2023/04/24 05:07:39;;;;;;;3.95;2.90;;;;;;;11.23;82.78;99681.63;7394710;19;20011;-67
2023/04/24 05:10:09;;;;;;;4.22;2.90;;;;;;;11.21;82.69;99676.44;7395721;19;20545;-68
2023/04/24 05:12:37;;;;;;;3.22;2.92;;;;;;;11.20;82.67;99677.38;7394541;19;20019;-67
2023/04/24 05:15:06;;;;;;;4.93;3.05;;;;;;;11.20;82.61;99680.00;7396107;19;20086;-68
2023/04/24 05:17:35;;;;;;;4.32;2.38;;;;;;;11.20;82.49;99682.59;7395983;19;20078;-68
2023/04/24 05:20:05;;;;;;;4.40;2.90;;;;;;;11.19;82.54;99685.31;7395894;19;20082;-68
2023/04/24 05:22:36;;;;;;;2.92;2.35;;;;;;;11.18;82.51;99679.19;7395577;19;20019;-67
2023/04/24 05:25:05;;;;;;;2.50;2.17;;;;;;;11.19;82.43;99677.44;7394473;19;20024;-67
2023/04/24 05:27:34;;;;;;;3.05;2.00;;;;;;;11.19;82.43;99687.94;7395450;19;20012;-69
2023/04/24 05:30:02;;;;;;;7.30;2.03;;;;;;;11.19;82.28;99685.31;7396975;19;20018;-67
2023/04/24 05:32:30;;;;;;;2.97;2.08;;;;;;;11.20;82.32;99685.22;7395813;19;20078;-66
2023/04/24 05:34:59;;;;;;;2.10;1.90;;;;;;;11.22;82.31;99688.66;7394658;19;20081;-67
2023/04/24 05:37:28;;;;;;;2.22;1.40;;;;;;;11.23;82.23;99684.25;7393574;19;20518;-66
2023/04/24 05:39:59;;;;;;;2.55;1.52;;;;;;;11.24;82.22;99684.19;7392944;19;20029;-66
2023/04/24 05:42:27;;;;;;;2.03;1.58;;;;;;;11.25;82.07;99680.66;7395933;19;20097;-66
2023/04/24 05:44:55;;;;;;;2.33;1.73;;;;;;;11.28;81.96;99689.31;7393719;19;20010;-67
2023/04/24 05:47:24;;;;;;;1.52;1.42;;;;;;;11.29;82.05;99698.91;7393929;19;20473;-66
2023/04/24 05:49:52;;;;;;;3.53;1.63;;;;;;;11.30;81.81;99698.84;7393801;19;20179;-67
2023/04/24 05:52:21;;;;;;;3.47;1.45;;;;;;;11.31;81.79;99699.69;7395785;19;20019;-66
2023/04/24 05:54:49;;;;;;;3.35;1.85;;;;;;;11.32;81.63;99704.03;7395060;19;20074;-65
2023/04/24 05:57:21;;;;;;;2.50;1.65;;;;;;;11.34;81.59;99699.56;7395506;19;20023;-66
2023/04/24 05:59:49;;;;;;;2.38;1.48;;;;;;;11.36;81.58;99705.59;7393636;19;20014;-65
2023/04/24 06:02:18;;;;;;;4.05;1.55;;;;;;;11.39;81.34;99703.69;7394588;19;20022;-65
2023/04/24 06:04:47;;;;;;;3.55;1.95;;;;;;;11.41;81.30;99714.13;7394320;19;20074;-65
2023/04/24 06:07:15;;;;;;;1.50;1.35;;;;;;;11.42;81.22;99715.84;7395252;19;20086;-66
2023/04/24 06:09:44;;;;;;;2.05;1.50;;;;;;;11.51;81.03;99731.25;7392814;19;20074;-66
2023/04/24 06:12:12;;;;;;;3.35;1.55;;;;;;;11.58;80.73;99723.94;7393620;19;20078;-67
2023/04/24 06:14:43;;;;;;;2.83;1.13;;;;;;;11.64;80.51;99734.22;7393446;19;20021;-67
2023/04/24 06:17:12;;;;;;;1.40;1.15;;;;;;;11.71;80.43;99712.00;7393159;19;20500;-67
2023/04/24 06:19:40;;;;;;;2.45;1.42;;;;;;;11.76;80.13;99703.91;7393455;19;20014;-67
2023/04/24 06:22:09;;;;;;;2.47;1.55;;;;;;;11.86;79.83;99714.88;7394890;19;20074;-67
2023/04/24 06:24:38;;;;;;;1.85;1.50;;;;;;;11.93;79.54;99710.22;7392830;19;20496;-68
2023/04/24 06:27:07;;;;;;;1.73;1.27;;;;;;;11.96;78.98;99715.38;7392609;19;20025;-67
2023/04/24 06:29:35;;;;;;;3.00;1.10;;;;;;;12.04;78.78;99721.13;7393953;19;20070;-66
2023/04/24 06:32:07;;;;;;;1.77;1.40;;;;;;;12.10;78.50;99712.13;7393321;19;20022;-67
2023/04/24 06:34:36;;;;;;;1.40;1.30;;;;;;;12.14;78.36;99716.34;7392606;19;20018;-67
2023/04/24 06:37:04;;;;;;;4.32;1.40;;;;;;;12.18;77.92;99716.13;7394397;19;20078;-68
2023/04/24 06:39:33;;;;;;;4.07;1.48;;;;;;;12.20;77.74;99713.44;7392380;19;20018;-68
2023/04/24 06:42:01;;;;;;;1.92;1.40;;;;;;;12.22;76.98;99722.94;7393939;19;20021;-68
2023/04/24 06:44:30;;;;;;;3.25;1.25;;;;;;;12.26;77.47;99722.81;7391634;19;20018;-68
2023/04/24 06:47:05;;;;;;;1.77;1.10;;;;;;;12.29;76.57;99725.31;7392882;19;20572;-67
2023/04/24 06:49:42;;;;;;;2.15;1.23;;;;;;;12.30;76.55;99719.97;7393960;19;20098;-67
2023/04/24 06:52:11;;;;;;;1.38;1.17;;;;;;;12.31;76.82;99719.06;7396998;19;20077;-66
2023/04/24 06:54:39;;;;;;;1.73;1.17;;;;;;;12.35;76.83;99715.34;7398134;19;20014;-68
2023/04/24 06:57:08;;;;;;;1.33;1.10;;;;;;;12.40;76.34;99728.31;7401323;19;20014;-72
2023/04/24 06:59:36;;;;;;;2.63;1.10;;;;;;;12.42;76.19;99720.34;7398788;19;20082;-72
2023/04/24 07:02:05;;;;;;;1.88;0.98;;;;;;;12.43;75.97;99722.91;7401255;19;20022;-72
2023/04/24 07:04:34;;;;;;;3.15;1.10;;;;;;;12.46;76.04;99722.78;7398374;19;20032;-73
2023/04/24 07:07:06;;;;;;;2.55;1.23;;;;;;;12.49;75.83;99727.88;7401104;19;20018;-73
2023/04/24 07:09:35;;;;;;;2.40;1.30;;;;;;;12.52;75.35;99719.00;7401243;19;20037;-73
2023/04/24 07:12:03;;;;;;;1.48;1.02;;;;;;;12.55;75.41;99716.22;7400610;19;20039;-72
2023/04/24 07:14:31;;;;;;;2.15;1.15;;;;;;;12.59;75.43;99717.78;7397824;19;20078;-73
2023/04/24 07:17:01;;;;;;;2.03;1.10;;;;;;;12.62;75.28;99725.53;7400381;19;20078;-73
2023/04/24 07:19:29;;;;;;;2.67;1.40;;;;;;;12.65;75.02;99711.38;7399308;19;20049;-72
2023/04/24 07:21:58;;;;;;;2.33;1.13;;;;;;;12.69;74.90;99716.44;7400387;19;20018;-72
2023/04/24 07:24:29;;;;;;;3.42;1.20;;;;;;;12.73;74.46;99714.50;7398153;19;20042;-71
2023/04/24 07:26:58;;;;;;;1.50;1.08;;;;;;;12.79;74.87;99714.22;7400811;19;20014;-72
2023/04/24 07:29:26;;;;;;;2.60;1.05;;;;;;;12.88;74.43;99713.78;7400212;19;20015;-72
2023/04/24 07:31:56;;;;;;;2.40;1.20;;;;;;;12.96;74.32;99709.94;7400243;19;20082;-72
2023/04/24 07:34:24;;;;;;;1.80;1.20;;;;;;;13.03;73.91;99700.81;7398054;19;20037;-73
2023/04/24 07:36:53;;;;;;;1.55;1.25;;;;;;;13.13;73.91;99696.81;7399819;19;20489;-72
2023/04/24 07:39:21;;;;;;;1.30;1.10;;;;;;;13.25;73.38;99697.13;7398531;19;20545;-72
2023/04/24 07:41:52;;;;;;;3.17;1.17;;;;;;;13.35;73.21;99690.47;7402830;19;20545;-72
2023/04/24 07:44:21;;;;;;;2.75;1.50;;;;;;;13.46;72.90;99698.72;7398058;19;20026;-71
2023/04/24 07:46:49;;;;;;;2.25;1.00;;;;;;;13.58;72.26;99694.59;7399650;19;20418;-72
2023/04/24 07:49:18;;;;;;;3.08;1.20;;;;;;;13.68;71.88;99703.72;7398321;19;20082;-73
2023/04/24 07:51:47;;;;;;;2.47;0.90;;;;;;;13.79;71.29;99705.81;7399894;19;20066;-72
2023/04/24 07:54:16;;;;;;;1.60;0.93;;;;;;;13.91;70.96;99703.47;7398094;19;20033;-72
2023/04/24 07:56:46;;;;;;;2.40;1.05;;;;;;;13.97;70.09;99704.00;7398988;19;20042;-73
2023/04/24 07:59:17;;;;;;;2.53;1.20;;;;;;;14.06;70.02;99702.66;7398151;19;20585;-72
2023/04/24 08:01:45;;;;;;;1.73;0.98;;;;;;;14.15;70.10;99702.19;7398814;19;20550;-72
2023/04/24 08:04:14;;;;;;;1.52;1.10;;;;;;;14.25;70.17;99706.97;7396923;19;20014;-73
2023/04/24 08:06:42;;;;;;;2.65;1.92;;;;;;;14.33;69.87;99702.13;7398520;19;20093;-71
2023/04/24 08:09:10;;;;;;;3.50;1.40;;;;;;;14.42;69.27;99701.63;7398832;19;20351;-72
2023/04/24 08:11:39;;;;;;;2.28;0.90;;;;;;;14.51;69.19;99702.94;7396368;19;20025;-71
2023/04/24 08:14:07;;;;;;;1.17;0.98;;;;;;;14.57;68.86;99702.59;7396423;19;20090;-73
2023/04/24 08:16:38;;;;;;;1.25;0.98;;;;;;;14.66;68.49;99703.91;7398633;19;20019;-72
2023/04/24 08:19:07;;;;;;;2.83;1.27;;;;;;;14.72;68.07;99700.94;7397676;19;20017;-72
2023/04/24 08:21:36;;;;;;;1.20;0.98;;;;;;;14.82;67.76;99710.03;7398714;19;20018;-73
2023/04/24 08:24:07;;;;;;;0.95;0.65;;;;;;;14.87;66.61;99701.84;7396433;19;20014;-72
2023/04/24 08:26:36;;;;;;;3.97;0.88;;;;;;;14.90;65.28;99704.31;7398844;19;20018;-73
2023/04/24 08:29:04;;;;;;;1.90;0.80;;;;;;;14.92;65.81;99699.78;7398509;19;20014;-72
2023/04/24 08:31:32;;;;;;;2.13;0.88;;;;;;;14.94;64.77;99699.72;7397997;19;20010;-71
2023/04/24 08:34:04;;;;;;;1.38;0.85;;;;;;;14.92;63.21;99704.22;7396366;19;20541;-72
2023/04/24 08:36:33;;;;;;;2.70;1.15;;;;;;;14.90;64.36;99708.72;7398127;19;20087;-72
2023/04/24 08:39:01;;;;;;;1.50;0.68;;;;;;;14.86;63.93;99709.84;7399562;19;20011;-72
2023/04/24 08:41:30;;;;;;;2.33;0.90;;;;;;;14.84;64.13;99720.50;7397543;19;20422;-72
2023/04/24 08:43:59;;;;;;;1.42;0.60;;;;;;;14.85;63.38;99716.06;7396518;19;20019;-72
2023/04/24 08:46:28;;;;;;;3.25;1.00;;;;;;;14.90;63.59;99724.56;7395670;19;20025;-72
2023/04/24 08:48:57;;;;;;;3.10;0.77;;;;;;;14.93;63.15;99722.63;7395354;19;20074;-72
2023/04/24 08:51:30;;;;;;;1.52;1.00;;;;;;;14.96;62.16;99714.53;7397263;19;20553;-72
2023/04/24 08:53:59;;;;;;;2.60;1.25;;;;;;;15.01;62.67;99724.00;7396371;19;20022;-72
2023/04/24 08:56:30;;;;;;;1.58;0.68;;;;;;;15.05;62.81;99718.44;7397182;19;20014;-73
2023/04/24 08:59:00;;;;;;;1.65;0.80;;;;;;;15.13;62.71;99725.94;7396556;19;20032;-72
2023/04/24 09:01:29;;;;;;;2.03;0.70;;;;;;;15.16;62.12;99717.81;7397525;19;20086;-73
2023/04/24 09:03:58;;;;;;;3.70;0.88;;;;;;;15.19;62.27;99720.31;7395921;19;20095;-71
2023/04/24 09:06:30;;;;;;;1.75;0.70;;;;;;;15.18;61.50;99723.88;7395238;19;20015;-72
2023/04/24 09:09:03;;;;;;;2.35;0.63;;;;;;;15.14;61.54;99720.56;7397483;19;20037;-72
2023/04/24 09:11:33;;;;;;;2.90;0.90;;;;;;;15.13;62.05;99721.50;7395712;19;20019;-73
2023/04/24 09:14:02;;;;;;;1.05;0.50;;;;;;;15.17;62.05;99724.81;7392581;19;20449;-73
2023/04/24 09:16:30;;;;;;;1.15;0.90;;;;;;;15.15;61.77;99718.75;7396746;19;20021;-72
2023/04/24 09:18:58;;;;;;;2.15;0.70;;;;;;;15.18;61.77;99729.16;7396502;19;20082;-72
2023/04/24 09:21:35;;;;;;;1.83;1.20;;;;;;;15.18;60.76;99718.59;7394311;19;20082;-72
2023/04/24 09:24:05;;;;;;;1.20;0.65;;;;;;;15.20;61.52;99721.97;7394274;19;20505;-72
2023/04/24 09:26:35;;;;;;;2.30;0.80;;;;;;;15.23;61.53;99721.81;7397040;19;20445;-73
2023/04/24 09:29:04;;;;;;;1.92;0.57;;;;;;;15.28;61.63;99727.69;7396388;19;20035;-71
2023/04/24 09:31:32;;;;;;;1.05;0.60;;;;;;;15.35;61.18;99722.06;7396167;19;20437;-72
2023/04/24 09:34:05;;;;;;;2.00;0.70;;;;;;;15.38;60.44;99717.44;7394302;19;20494;-72
2023/04/24 09:36:39;;;;;;;0.82;0.40;;;;;;;15.38;59.99;99708.66;7396030;19;20010;-72
2023/04/24 09:39:10;;;;;;;1.23;0.60;;;;;;;15.37;59.88;99712.25;7396295;19;20036;-73
2023/04/24 09:41:47;;;;;;;1.27;0.65;;;;;;;15.31;59.17;99716.09;7396270;19;20014;-72
2023/04/24 09:44:19;;;;;;;0.90;0.70;;;;;;;15.32;59.98;99715.16;7394529;19;20022;-73
2023/04/24 09:46:52;;;;;;;1.83;0.88;;;;;;;15.32;59.77;99715.16;7396479;19;20018;-73
2023/04/24 09:49:26;;;;;;;1.88;0.60;;;;;;;15.35;59.42;99714.97;7393918;19;20086;-72
2023/04/24 09:52:06;;;;;;;2.63;0.70;;;;;;;15.42;60.06;99710.19;7394581;19;20014;-72
2023/04/24 09:54:36;;;;;;;1.98;0.68;;;;;;;15.50;59.53;99707.09;7393747;19;20053;-74
2023/04/24 09:57:12;;;;;;;2.22;0.73;;;;;;;15.58;59.80;99697.78;7394990;19;20548;-72
2023/04/24 09:59:45;;;;;;;1.58;0.73;;;;;;;15.68;59.19;99700.69;7395283;19;20075;-74
2023/04/24 10:02:20;;;;;;;1.30;0.90;;;;;;;15.77;59.09;99702.81;7394955;19;20370;-74
2023/04/24 10:04:58;;;;;;;3.35;1.10;;;;;;;15.82;58.71;99699.91;7395667;19;20014;-72
2023/04/24 10:07:31;;;;;;;4.18;0.70;;;;;;;15.86;58.84;99700.56;7392524;19;20041;-73
2023/04/24 10:10:00;;;;;;;3.20;0.75;;;;;;;15.86;58.17;99700.56;7395085;19;20090;-73
2023/04/24 10:15:40;;;;;;;2.15;0.60;;;;;;;15.84;57.99;99699.84;7396067;19;19985;-73
2023/04/24 10:18:09;;;;;;;1.23;0.70;;;;;;;15.85;57.79;99685.69;7394557;19;20014;-76
2023/04/24 10:20:39;;;;;;;1.20;0.60;;;;;;;15.88;57.71;99694.25;7393465;19;20086;-75
2023/04/24 10:23:10;;;;;;;0.75;0.55;;;;;;;15.96;57.38;99693.78;7393094;19;20039;-72
2023/04/24 10:25:39;;;;;;;1.05;0.70;;;;;;;16.06;57.16;99699.38;7397112;19;20025;-72
2023/04/24 10:28:08;;;;;;;1.52;0.65;;;;;;;16.15;56.57;99692.66;7402070;19;20018;-72
2023/04/24 10:30:37;;;;;;;1.45;0.60;;;;;;;16.21;56.14;99692.28;7401676;19;20017;-72
2023/04/24 10:33:07;;;;;;;0.50;0.50;;;;;;;16.23;55.95;99701.00;7400933;19;20038;-72
2023/04/24 10:35:40;;;;;;;1.60;0.60;;;;;;;16.23;55.57;99693.03;7401236;19;20082;-73
2023/04/24 10:38:14;;;;;;;3.90;0.70;;;;;;;16.24;55.81;99708.81;7399566;19;20031;-72
2023/04/24 10:40:43;;;;;;;2.30;0.90;;;;;;;16.24;56.12;99711.47;7399290;19;20017;-73
2023/04/24 10:43:12;;;;;;;2.35;0.60;;;;;;;16.21;56.59;99702.88;7400445;19;20082;-72
2023/04/24 10:45:40;;;;;;;1.77;0.60;;;;;;;16.09;56.05;99715.06;7401070;19;20022;-72
2023/04/24 10:48:13;;;;;;;2.03;1.10;;;;;;;15.99;56.97;99704.19;7399619;19;20365;-73
2023/04/24 10:50:46;;;;;;;3.33;0.85;;;;;;;15.93;57.45;99710.69;7401825;19;20014;-72
2023/04/24 10:53:23;;;;;;;1.23;0.80;;;;;;;15.94;57.47;99704.47;7401639;19;20078;-74
2023/04/24 10:55:53;;;;;;;2.55;0.60;;;;;;;15.95;57.86;99705.31;7401052;19;20018;-72
2023/04/24 10:58:25;;;;;;;2.00;0.75;;;;;;;15.95;58.04;99703.53;7400661;19;20519;-73
2023/04/24 11:01:02;;;;;;;1.98;0.80;;;;;;;15.99;58.15;99704.19;7399654;19;20021;-72
2023/04/24 11:03:32;;;;;;;1.27;0.75;;;;;;;16.05;58.39;99697.66;7398762;19;20019;-73
2023/04/24 11:06:05;;;;;;;2.15;0.90;;;;;;;16.16;58.36;99694.38;7400807;19;20102;-73
2023/04/24 11:08:41;;;;;;;3.78;1.10;;;;;;;16.32;58.36;99691.63;7398463;19;20018;-73
2023/04/24 11:11:14;;;;;;;1.33;0.80;;;;;;;16.44;57.97;99698.78;7400569;19;20018;-73
2023/04/24 11:14:04;;;;;;;1.05;0.77;;;;;;;16.54;57.25;99694.63;7398191;19;20018;-76
2023/04/24 11:16:35;;;;;;;0.93;0.68;;;;;;;16.66;57.16;99694.78;7400049;19;20389;-71
2023/04/24 11:19:05;;;;;;;1.23;0.70;;;;;;;16.78;56.81;99697.50;7400733;19;20018;-72
2023/04/24 11:21:34;;;;;;;3.30;1.00;;;;;;;16.95;55.13;99687.63;7396698;19;20015;-72
2023/04/24 11:24:30;;;;;;;1.77;0.77;;;;;;;17.08;53.86;99687.69;7397956;19;20018;-74
2023/04/24 11:27:01;;;;;;;2.35;0.50;;;;;;;17.20;54.02;99699.25;7398348;19;20485;-74
2023/04/24 11:30:01;;;;;;;2.35;0.88;;;;;;;17.28;49.09;99699.59;7400696;19;20025;-74
2023/04/24 11:32:31;;;;;;;1.63;0.60;;;;;;;17.27;49.34;99692.59;7398969;19;20104;-73
2023/04/24 11:35:01;;;;;;;1.10;0.55;;;;;;;17.22;49.27;99705.31;7399703;19;20019;-71
2023/04/24 11:37:31;;;;;;;2.28;0.77;;;;;;;17.16;49.11;99698.63;7398638;19;20026;-74
2023/04/24 11:40:03;;;;;;;3.45;0.70;;;;;;;17.14;47.98;99708.47;7399365;19;20021;-71
2023/04/24 11:42:35;;;;;;;1.02;0.60;;;;;;;17.10;48.60;99707.81;7399542;19;20018;-74
2023/04/24 11:45:09;;;;;;;2.10;0.83;;;;;;;17.09;47.92;99713.22;7399746;19;20354;-72
2023/04/24 11:47:37;;;;;;;;;;;;;;;17.08;47.48;99715.00;7399427;19;20501;-72
2023/04/24 11:50:12;;;;;;;2.67;0.50;;;;;;;17.10;46.24;99704.34;7400515;19;19914;-73